createdAt,value
2018-09-04T00:01:29.538Z,96958.00
2018-09-04T00:04:11.520Z,96963.00
2018-09-04T00:06:51.963Z,96957.00
2018-09-04T00:09:32.395Z,96955.00
2018-09-04T00:12:15.699Z,96957.00
2018-09-04T00:14:56.086Z,96954.00
2018-09-04T00:17:36.596Z,96944.00
2018-09-04T00:20:17.181Z,96934.00
2018-09-04T00:22:57.563Z,96922.00
2018-09-04T00:25:37.915Z,96914.00
2018-09-04T00:28:19.580Z,96912.00
2018-09-04T00:31:00.968Z,96912.00
2018-09-04T00:33:44.478Z,96903.00
2018-09-04T00:36:24.980Z,96899.00
2018-09-04T00:39:05.853Z,96897.00
2018-09-04T00:41:47.314Z,96898.00
2018-09-04T00:44:27.867Z,96906.00
2018-09-04T00:47:08.419Z,96906.00
2018-09-04T00:49:48.880Z,96899.00
2018-09-04T00:52:29.425Z,96898.00
2018-09-04T00:55:09.828Z,96908.00
2018-09-04T00:57:50.229Z,96912.00
2018-09-04T01:00:30.726Z,96909.00
2018-09-04T01:03:12.608Z,96907.00
2018-09-04T01:05:53.087Z,96910.00
2018-09-04T01:08:33.697Z,96914.00
2018-09-04T01:11:15.319Z,96918.00
2018-09-04T01:13:55.883Z,96920.00
2018-09-04T01:16:37.125Z,96923.00
2018-09-04T01:19:17.767Z,96921.00
2018-09-04T01:21:59.226Z,96914.00
2018-09-04T01:24:39.860Z,96917.00
2018-09-04T01:27:20.249Z,96928.00
2018-09-04T01:30:01.225Z,96931.00
2018-09-04T01:32:44.621Z,96928.00
2018-09-04T01:35:25.159Z,96934.00
2018-09-04T01:38:05.652Z,96943.00
2018-09-04T01:40:47.331Z,96947.00
2018-09-04T01:43:27.903Z,96961.00
2018-09-04T01:46:08.448Z,96965.00
2018-09-04T01:48:51.235Z,96972.00
2018-09-04T01:51:31.693Z,96966.00
2018-09-04T01:54:14.559Z,96968.00
2018-09-04T01:56:55.655Z,96968.00
2018-09-04T01:59:36.089Z,96973.00
2018-09-04T02:02:17.336Z,96971.00
2018-09-04T02:04:57.872Z,96970.00
2018-09-04T02:07:38.588Z,96960.00
2018-09-04T02:10:19.188Z,96964.00
2018-09-04T02:12:59.800Z,96966.00
2018-09-04T02:15:41.291Z,96967.00
2018-09-04T02:44:23.453Z,96957.00
2018-09-04T02:47:03.859Z,96968.00
2018-09-04T02:49:44.441Z,96961.00
2018-09-04T02:52:25.296Z,96964.00
2018-09-04T02:55:05.768Z,96955.00
2018-09-04T02:57:46.300Z,96960.00
2018-09-04T03:00:26.870Z,96962.00
2018-09-04T03:03:08.014Z,96966.00
2018-09-04T03:05:48.566Z,96964.00
2018-09-04T03:08:29.079Z,96956.00
2018-09-04T03:11:12.536Z,96963.00
2018-09-04T03:13:53.131Z,96959.00
2018-09-04T03:16:33.755Z,96965.00
2018-09-04T03:19:14.239Z,96969.00
2018-09-04T03:21:54.725Z,96969.00
2018-09-04T03:24:35.238Z,96972.00
2018-09-04T03:27:15.792Z,96959.00
2018-09-04T03:29:56.337Z,96966.00
2018-09-04T03:32:38.065Z,96966.00
2018-09-04T03:35:18.692Z,96966.00
2018-09-04T03:37:59.257Z,96964.00
2018-09-04T03:40:42.356Z,96964.00
2018-09-04T03:43:22.985Z,96971.00
2018-09-04T03:46:03.591Z,96968.00
2018-09-04T03:48:44.156Z,96965.00
2018-09-04T03:51:24.630Z,96949.00
2018-09-04T03:54:05.244Z,96954.00
2018-09-04T03:56:45.828Z,96956.00
2018-09-04T03:59:26.321Z,96951.00
2018-09-04T04:02:08.470Z,96949.00
2018-09-04T04:04:48.951Z,96954.00
2018-09-04T04:07:29.287Z,96947.00
2018-09-04T04:10:12.432Z,96946.00
2018-09-04T04:12:53.041Z,96951.00
2018-09-04T04:15:33.839Z,96956.00
2018-09-04T04:18:14.248Z,96947.00
2018-09-04T04:20:58.751Z,96955.00
2018-09-04T04:23:42.558Z,96955.00
2018-09-04T04:26:23.098Z,96950.00
2018-09-04T04:29:03.629Z,96954.00
2018-09-04T04:31:44.185Z,96955.00
2018-09-04T04:34:24.527Z,96957.00
2018-09-04T04:37:05.093Z,96950.00
2018-09-04T04:39:45.466Z,96950.00
2018-09-04T04:42:26.113Z,96960.00
2018-09-04T04:45:06.505Z,96951.00
2018-09-04T04:47:47.884Z,96958.00
2018-09-04T04:50:28.476Z,96952.00
2018-09-04T04:53:12.236Z,96950.00
2018-09-04T04:55:52.844Z,96950.00
2018-09-04T04:58:34.291Z,96958.00
2018-09-04T05:01:14.765Z,96955.00
2018-09-04T05:03:55.192Z,96948.00
2018-09-04T05:06:35.760Z,96952.00
2018-09-04T05:09:16.255Z,96956.00
2018-09-04T05:11:56.840Z,96954.00
2018-09-04T05:14:38.608Z,96950.00
2018-09-04T05:17:19.957Z,96952.00
2018-09-04T05:20:00.667Z,96950.00
2018-09-04T05:22:42.374Z,96950.00
2018-09-04T05:25:22.744Z,96952.00
2018-09-04T05:28:03.286Z,96940.00
2018-09-04T05:30:44.032Z,96939.00
2018-09-04T05:33:32.852Z,96949.00
2018-09-04T05:36:14.852Z,96952.00
2018-09-04T05:38:56.260Z,96938.00
2018-09-04T05:41:38.501Z,96946.00
2018-09-04T05:44:19.395Z,96947.00
2018-09-04T05:47:00.272Z,96947.00
2018-09-04T05:49:42.851Z,96950.00
2018-09-04T05:52:23.485Z,96952.00
2018-09-04T05:55:04.248Z,96948.00
2018-09-04T05:57:45.137Z,96951.00
2018-09-04T06:00:34.742Z,96952.00
2018-09-04T06:03:15.316Z,96944.00
2018-09-04T06:05:55.879Z,96941.00
2018-09-04T06:08:36.468Z,96931.00
2018-09-04T06:11:17.182Z,96948.00
2018-09-04T06:13:57.561Z,96931.00
2018-09-04T06:16:41.308Z,96933.00
2018-09-04T06:19:21.686Z,96926.00
2018-09-04T06:22:02.483Z,96927.00
2018-09-04T06:24:43.985Z,96931.00
2018-09-04T06:27:24.418Z,96928.00
2018-09-04T06:30:04.944Z,96930.00
2018-09-04T06:32:45.463Z,96932.00
2018-09-04T06:35:25.993Z,96935.00
2018-09-04T06:38:08.426Z,96931.00
2018-09-04T06:40:49.304Z,96931.00
2018-09-04T06:43:29.744Z,96927.00
2018-09-04T06:46:12.408Z,96938.00
2018-09-04T06:48:52.987Z,96936.00
2018-09-04T06:51:33.711Z,96931.00
2018-09-04T06:54:14.288Z,96929.00
2018-09-04T06:56:54.769Z,96929.00
2018-09-04T06:59:35.408Z,96939.00
2018-09-04T07:02:15.921Z,96944.00
2018-09-04T07:04:57.307Z,96944.00
2018-09-04T07:07:39.375Z,96948.00
2018-09-04T07:10:19.935Z,96941.00
2018-09-04T07:13:00.596Z,96942.00
2018-09-04T07:15:42.729Z,96951.00
2018-09-04T07:18:23.165Z,96946.00
2018-09-04T07:21:03.531Z,96953.00
2018-09-04T07:23:44.178Z,96955.00
2018-09-04T07:26:24.781Z,96953.00
2018-09-04T07:29:05.260Z,96960.00
2018-09-04T07:31:45.763Z,96953.00
2018-09-04T07:34:26.318Z,96959.00
2018-09-04T07:37:08.433Z,96966.00
2018-09-04T07:39:49.057Z,96962.00
2018-09-04T07:42:29.642Z,96965.00
2018-09-04T07:45:13.261Z,96971.00
2018-09-04T07:47:53.681Z,96968.00
2018-09-04T07:50:34.352Z,96976.00
2018-09-04T07:53:14.664Z,96980.00
2018-09-04T07:55:55.262Z,96982.00
2018-09-04T07:58:35.612Z,96992.00
2018-09-04T08:01:16.361Z,96997.00
2018-09-04T08:03:57.463Z,97005.00
2018-09-04T08:06:39.694Z,97001.00
2018-09-04T08:09:20.191Z,97010.00
2018-09-04T08:12:01.509Z,97007.00
2018-09-04T08:14:43.656Z,97004.00
2018-09-04T08:17:24.104Z,97013.00
2018-09-04T08:20:04.649Z,97002.00
2018-09-04T08:22:45.282Z,97008.00
2018-09-04T08:25:27.263Z,97007.00
2018-09-04T08:28:09.408Z,97004.00
2018-09-04T08:30:49.911Z,97002.00
2018-09-04T08:33:30.490Z,97004.00
2018-09-04T08:36:13.033Z,97012.00
2018-09-04T08:38:53.574Z,97018.00
2018-09-04T08:41:34.049Z,97013.00
2018-09-04T08:44:14.571Z,97008.00
2018-09-04T08:46:55.017Z,97011.00
2018-09-04T08:49:35.459Z,97009.00
2018-09-04T08:52:16.041Z,97016.00
2018-09-04T08:54:56.559Z,97018.00
2018-09-04T08:57:38.619Z,97012.00
2018-09-04T09:00:19.103Z,97016.00
2018-09-04T09:02:59.541Z,97025.00
2018-09-04T09:05:42.584Z,97019.00
2018-09-04T09:08:23.113Z,97022.00
2018-09-04T09:11:03.948Z,97015.00
2018-09-04T09:13:44.567Z,97021.00
2018-09-04T09:16:24.916Z,97019.00
2018-09-04T09:19:05.856Z,97012.00
2018-09-04T09:21:46.293Z,97018.00
2018-09-04T09:24:26.764Z,97016.00
2018-09-04T09:27:08.760Z,97012.00
2018-09-04T09:29:49.757Z,97007.00
2018-09-04T09:32:30.164Z,97004.00
2018-09-04T09:35:12.597Z,97018.00
2018-09-04T09:37:53.300Z,97024.00
2018-09-04T09:40:33.860Z,97024.00
2018-09-04T09:43:14.480Z,97026.00
2018-09-04T09:45:54.990Z,97027.00
2018-09-04T09:48:41.276Z,97025.00
2018-09-04T09:51:21.724Z,97034.00
2018-09-04T09:54:02.577Z,97038.00
2018-09-04T09:56:44.199Z,97038.00
2018-09-04T09:59:24.605Z,97042.00
2018-09-04T10:02:08.888Z,97037.00
2018-09-04T10:04:49.984Z,97040.00
2018-09-04T10:07:30.603Z,97042.00
2018-09-04T10:10:12.938Z,97043.00
2018-09-04T10:12:53.309Z,97042.00
2018-09-04T10:15:33.665Z,97041.00
2018-09-04T10:18:14.187Z,97037.00
2018-09-04T10:20:54.811Z,97032.00
2018-09-04T10:23:36.369Z,97030.00
2018-09-04T10:26:16.986Z,97028.00
2018-09-04T10:28:57.454Z,97021.00
2018-09-04T10:31:39.259Z,97018.00
2018-09-04T10:34:19.656Z,97013.00
2018-09-04T10:37:08.272Z,97008.00
2018-09-04T10:39:53.882Z,97022.00
2018-09-04T10:42:34.438Z,97016.00
2018-09-04T10:45:20.140Z,97015.00
2018-09-04T10:48:01.185Z,97018.00
2018-09-04T10:50:43.946Z,97019.00
2018-09-04T10:53:24.445Z,97006.00
2018-09-04T10:56:05.040Z,97018.00
2018-09-04T10:58:45.585Z,97008.00
2018-09-04T11:01:26.115Z,97003.00
2018-09-04T11:04:08.404Z,97005.00
2018-09-04T11:06:49.728Z,97009.00
2018-09-04T11:09:30.451Z,97008.00
2018-09-04T11:12:12.356Z,97005.00
2018-09-04T11:14:52.853Z,97003.00
2018-09-04T11:17:33.271Z,97002.00
2018-09-04T11:20:14.845Z,96997.00
2018-09-04T11:22:55.371Z,96986.00
2018-09-04T11:25:35.779Z,96982.00
2018-09-04T11:28:16.216Z,96981.00
2018-09-04T11:30:56.834Z,96973.00
2018-09-04T11:33:38.185Z,96975.00
2018-09-04T11:36:18.798Z,96970.00
2018-09-04T11:38:59.436Z,96975.00
2018-09-04T11:41:42.774Z,96982.00
2018-09-04T11:44:23.383Z,96976.00
2018-09-04T11:47:03.931Z,96969.00
2018-09-04T11:49:44.582Z,96977.00
2018-09-04T11:52:25.380Z,96970.00
2018-09-04T11:55:06.138Z,96964.00
2018-09-04T11:57:46.532Z,96976.00
2018-09-04T12:00:30.947Z,96976.00
2018-09-04T12:03:14.025Z,96972.00
2018-09-04T12:05:54.616Z,96977.00
2018-09-04T12:08:35.366Z,96968.00
2018-09-04T12:11:16.101Z,96967.00
2018-09-04T12:13:56.469Z,96969.00
2018-09-04T12:16:38.253Z,96970.00
2018-09-04T12:19:18.844Z,96962.00
2018-09-04T12:21:59.275Z,96975.00
2018-09-04T12:24:42.750Z,96967.00
2018-09-04T12:27:23.233Z,96959.00
2018-09-04T12:30:03.934Z,96965.00
2018-09-04T12:32:44.449Z,96973.00
2018-09-04T12:35:24.979Z,96966.00
2018-09-04T12:38:08.409Z,96975.00
2018-09-04T12:40:49.551Z,96978.00
2018-09-04T12:46:29.517Z,96977.00
2018-09-04T12:49:11.992Z,96979.00
2018-09-04T12:51:52.509Z,96979.00
2018-09-04T12:54:33.113Z,96973.00
2018-09-04T12:57:13.818Z,96981.00
2018-09-04T12:59:54.410Z,96980.00
2018-09-04T13:02:34.845Z,96977.00
2018-09-04T13:05:15.637Z,96976.00
2018-09-04T13:07:56.122Z,96966.00
2018-09-04T13:10:37.975Z,96971.00
2018-09-04T13:13:18.491Z,96972.00
2018-09-04T13:16:00.669Z,96961.00
2018-09-04T13:18:43.144Z,96962.00
2018-09-04T13:21:23.949Z,96963.00
2018-09-04T13:24:04.536Z,96951.00
2018-09-04T13:26:45.113Z,96951.00
2018-09-04T13:29:25.624Z,96951.00
2018-09-04T13:32:06.192Z,96958.00
2018-09-04T13:34:46.805Z,96957.00
2018-09-04T13:37:27.427Z,96959.00
2018-09-04T13:40:09.371Z,96957.00
2018-09-04T13:42:49.903Z,96956.00
2018-09-04T13:45:30.497Z,96955.00
2018-09-04T13:48:12.789Z,96962.00
2018-09-04T14:07:11.525Z,96955.00
2018-09-04T14:09:52.056Z,96944.00
2018-09-04T14:12:32.687Z,96948.00
2018-09-04T14:15:17.044Z,96957.00
2018-09-04T14:17:57.614Z,96953.00
2018-09-04T14:20:38.101Z,96950.00
2018-09-04T14:23:18.739Z,96949.00
2018-09-04T14:25:59.293Z,96960.00
2018-09-04T14:28:41.577Z,96960.00
2018-09-04T14:31:21.940Z,96971.00
2018-09-04T14:34:02.507Z,96964.00
2018-09-04T14:36:45.621Z,96971.00
2018-09-04T14:39:26.162Z,96976.00
2018-09-04T14:42:06.931Z,96973.00
2018-09-04T14:44:55.997Z,96977.00
2018-09-04T14:47:36.519Z,96978.00
2018-09-04T14:50:18.082Z,96978.00
2018-09-04T14:52:58.684Z,96979.00
2018-09-04T14:55:39.405Z,96978.00
2018-09-04T14:58:19.912Z,96975.00
2018-09-04T15:01:00.549Z,96979.00
2018-09-04T15:03:42.179Z,96970.00
2018-09-04T15:06:23.767Z,96971.00
2018-09-04T15:09:05.196Z,96968.00
2018-09-04T15:11:46.971Z,96972.00
2018-09-04T15:14:51.106Z,96970.00
2018-09-04T15:17:31.869Z,96981.00
2018-09-04T15:20:15.393Z,96981.00
2018-09-04T15:22:56.112Z,96976.00
2018-09-04T15:25:36.695Z,96981.00
2018-09-04T15:28:17.205Z,96983.00
2018-09-04T15:30:57.584Z,96985.00
2018-09-04T15:33:37.991Z,96992.00
2018-09-04T15:36:18.546Z,96990.00
2018-09-04T15:38:59.251Z,96985.00
2018-09-04T15:41:41.116Z,96988.00
2018-09-04T15:44:22.235Z,96999.00
2018-09-04T15:47:02.664Z,97002.00
2018-09-04T15:49:47.388Z,97002.00
2018-09-04T15:52:28.072Z,97009.00
2018-09-04T15:55:08.673Z,96997.00
2018-09-04T15:57:49.595Z,97001.00
2018-09-04T16:00:30.149Z,96996.00
2018-09-04T16:03:11.673Z,97006.00
2018-09-04T16:05:52.173Z,97001.00
2018-09-04T16:08:32.729Z,97010.00
2018-09-04T16:11:15.441Z,97000.00
2018-09-04T16:13:55.910Z,97001.00
2018-09-04T16:16:36.556Z,96998.00
2018-09-04T16:19:17.218Z,97000.00
2018-09-04T16:21:57.855Z,97007.00
2018-09-04T16:24:41.727Z,97003.00
2018-09-04T16:27:22.144Z,97006.00
2018-09-04T16:30:02.722Z,97007.00
2018-09-04T16:32:45.498Z,97013.00
2018-09-04T16:35:26.091Z,97017.00
2018-09-04T16:38:07.056Z,97004.00
2018-09-04T16:40:47.684Z,97002.00
2018-09-04T16:43:28.292Z,97006.00
2018-09-04T16:46:16.512Z,97000.00
2018-09-04T16:48:57.116Z,96998.00
2018-09-04T16:51:37.713Z,97002.00
2018-09-04T16:54:18.277Z,97008.00
2018-09-04T16:56:58.999Z,97019.00
2018-09-04T16:59:39.576Z,97009.00
2018-09-04T17:02:21.024Z,97019.00
2018-09-04T17:05:01.668Z,97010.00
2018-09-04T17:07:44.811Z,97016.00
2018-09-04T17:10:25.359Z,97014.00
2018-09-04T17:13:05.931Z,97005.00
2018-09-04T17:15:47.912Z,97012.00
2018-09-04T17:18:32.645Z,97000.00
2018-09-04T17:21:15.915Z,97004.00
2018-09-04T17:23:57.313Z,97015.00
2018-09-04T17:26:37.896Z,97009.00
2018-09-04T17:29:20.177Z,97022.00
2018-09-04T17:32:00.849Z,97028.00
2018-09-04T17:34:42.128Z,97031.00
2018-09-04T17:37:23.580Z,97038.00
2018-09-04T17:40:04.687Z,97040.00
2018-09-04T17:42:48.242Z,97059.00
2018-09-04T17:45:29.581Z,97063.00
2018-09-04T17:48:10.177Z,97073.00
2018-09-04T17:50:50.915Z,97082.00
2018-09-04T17:53:32.037Z,97088.00
2018-09-04T17:56:15.488Z,97102.00
2018-09-04T17:58:56.947Z,97102.00
2018-09-04T18:01:37.432Z,97093.00
2018-09-04T18:04:18.626Z,97099.00
2018-09-04T18:06:59.467Z,97096.00
2018-09-04T18:09:40.529Z,97096.00
2018-09-04T18:12:21.149Z,97097.00
2018-09-04T18:15:01.785Z,97102.00
2018-09-04T18:17:43.367Z,97093.00
2018-09-04T18:20:24.031Z,97095.00
2018-09-04T18:23:04.655Z,97099.00
2018-09-04T18:25:46.437Z,97096.00
2018-09-04T18:28:27.371Z,97095.00
2018-09-04T18:31:17.849Z,97092.00
2018-09-04T18:33:58.247Z,97093.00
2018-09-04T18:36:38.868Z,97098.00
2018-09-04T18:39:19.331Z,97098.00
2018-09-04T18:41:59.980Z,97097.00
2018-09-04T18:44:40.440Z,97095.00
2018-09-04T18:47:21.512Z,97094.00
2018-09-04T18:50:02.325Z,97090.00
2018-09-04T18:52:43.830Z,97088.00
2018-09-04T18:55:24.914Z,97090.00
2018-09-04T18:58:06.088Z,97091.00
2018-09-04T19:00:48.164Z,97080.00
2018-09-04T19:03:28.998Z,97084.00
2018-09-04T19:06:09.553Z,97086.00
2018-09-04T19:08:50.231Z,97085.00
2018-09-04T19:11:31.196Z,97085.00
2018-09-04T19:14:12.859Z,97085.00
2018-09-04T19:16:53.702Z,97089.00
2018-09-04T19:20:23.091Z,97088.00
2018-09-04T19:23:03.784Z,97087.00
2018-09-04T19:25:46.905Z,97099.00
2018-09-04T19:28:27.504Z,97098.00
2018-09-04T19:31:08.076Z,97099.00
2018-09-04T19:33:48.939Z,97096.00
2018-09-04T19:36:29.536Z,97108.00
2018-09-04T19:39:10.696Z,97107.00
2018-09-04T19:41:51.155Z,97113.00
2018-09-04T19:44:31.777Z,97105.00
2018-09-04T19:47:13.368Z,97109.00
2018-09-04T19:49:54.765Z,97104.00
2018-09-04T19:52:35.304Z,97094.00
2018-09-04T19:55:17.575Z,97093.00
2018-09-04T19:57:58.144Z,97107.00
2018-09-04T20:00:38.705Z,97105.00
2018-09-04T20:03:19.338Z,97112.00
2018-09-04T20:05:59.928Z,97102.00
2018-09-04T20:08:40.604Z,97088.00
2018-09-04T20:11:21.188Z,97095.00
2018-09-04T20:14:03.844Z,97098.00
2018-09-04T20:16:46.015Z,97100.00
2018-09-04T20:19:26.508Z,97110.00
2018-09-04T20:22:08.858Z,97114.00
2018-09-04T20:24:49.908Z,97109.00
2018-09-04T20:27:30.860Z,97113.00
2018-09-04T20:30:11.517Z,97108.00
2018-09-04T20:32:52.904Z,97122.00
2018-09-04T20:35:34.753Z,97119.00
2018-09-04T20:38:18.035Z,97116.00
2018-09-04T20:40:58.928Z,97128.00
2018-09-04T20:43:39.643Z,97113.00
2018-09-04T20:46:20.201Z,97119.00
2018-09-04T20:49:00.986Z,97129.00
2018-09-04T20:51:41.788Z,97126.00
2018-09-04T20:54:22.609Z,97131.00
2018-09-04T20:57:27.766Z,97122.00
2018-09-04T21:00:26.742Z,97121.00
2018-09-04T21:03:24.289Z,97117.00
2018-09-04T21:06:24.200Z,97111.00
2018-09-04T21:09:16.925Z,97122.00
2018-09-04T21:11:57.363Z,97119.00
2018-09-04T21:14:38.020Z,97121.00
2018-09-04T21:17:22.019Z,97125.00
2018-09-04T21:20:02.797Z,97120.00
2018-09-04T21:22:44.780Z,97125.00
2018-09-04T21:25:25.984Z,97119.00
2018-09-04T21:28:06.956Z,97117.00
2018-09-04T21:30:48.966Z,97114.00
2018-09-04T21:33:29.760Z,97119.00
2018-09-04T21:36:10.453Z,97117.00
2018-09-04T21:38:51.119Z,97118.00
2018-09-04T21:41:31.797Z,97121.00
2018-09-04T21:44:12.497Z,97118.00
2018-09-04T21:46:53.099Z,97106.00
2018-09-04T21:49:33.837Z,97108.00
2018-09-04T21:52:15.721Z,97117.00
2018-09-04T21:54:56.283Z,97112.00
2018-09-04T21:57:36.902Z,97110.00
2018-09-04T22:00:24.020Z,97115.00
2018-09-04T22:03:04.732Z,97118.00
2018-09-04T22:05:47.740Z,97119.00
2018-09-04T22:08:28.195Z,97126.00
2018-09-04T22:11:08.872Z,97127.00
2018-09-04T22:13:50.402Z,97134.00
2018-09-04T22:16:31.062Z,97133.00
2018-09-04T22:19:11.764Z,97129.00
2018-09-04T22:21:52.131Z,97119.00
2018-09-04T22:24:36.249Z,97119.00
2018-09-04T22:27:18.544Z,97124.00
2018-09-04T22:29:59.683Z,97125.00
2018-09-04T22:32:40.459Z,97132.00
2018-09-04T22:35:21.068Z,97133.00
2018-09-04T22:38:02.141Z,97138.00
2018-09-04T22:40:42.597Z,97144.00
2018-09-04T22:43:53.608Z,97138.00
2018-09-04T22:46:34.015Z,97140.00
2018-09-04T22:49:15.641Z,97144.00
2018-09-04T22:51:59.995Z,97135.00
2018-09-04T22:54:40.679Z,97143.00
2018-09-04T22:57:21.303Z,97149.00
2018-09-04T23:00:01.904Z,97144.00
2018-09-04T23:02:42.662Z,97141.00
2018-09-04T23:05:23.199Z,97136.00
2018-09-04T23:08:03.777Z,97136.00
2018-09-04T23:10:45.681Z,97143.00
2018-09-04T23:13:26.101Z,97127.00
2018-09-04T23:16:06.999Z,97131.00
2018-09-04T23:18:48.894Z,97149.00
2018-09-04T23:21:33.666Z,97132.00
2018-09-04T23:24:14.666Z,97124.00
2018-09-04T23:26:55.327Z,97123.00
2018-09-04T23:29:35.945Z,97123.00
2018-09-04T23:32:19.126Z,97120.00
2018-09-04T23:34:59.732Z,97110.00
2018-09-04T23:37:40.351Z,97115.00
2018-09-04T23:40:21.040Z,97114.00
2018-09-04T23:43:01.557Z,97112.00
2018-09-04T23:45:42.446Z,97109.00
2018-09-04T23:48:23.114Z,97114.00
2018-09-04T23:51:04.216Z,97111.00
2018-09-04T23:53:45.695Z,97114.00
2018-09-04T23:56:26.452Z,97105.00
2018-09-04T23:59:06.885Z,97104.00
